sensor_id;sensor_type;location;lat;lon;timestamp;P1;durP1;ratioP1;P2;durP2;ratioP2
16393;SDS011;8306;51.128;4.476;2024-02-21T00:01:17;10.30;;;6.07;;
16393;SDS011;8306;51.128;4.476;2024-02-21T00:03:43;9.43;;;5.83;;
16393;SDS011;8306;51.128;4.476;2024-02-21T00:06:09;11.53;;;6.17;;
16393;SDS011;8306;51.128;4.476;2024-02-21T00:08:36;9.60;;;5.50;;
16393;SDS011;8306;51.128;4.476;2024-02-21T00:11:02;9.90;;;5.40;;
16393;SDS011;8306;51.128;4.476;2024-02-21T00:13:29;9.13;;;5.50;;
16393;SDS011;8306;51.128;4.476;2024-02-21T00:15:55;8.60;;;5.70;;
16393;SDS011;8306;51.128;4.476;2024-02-21T00:18:22;8.67;;;5.67;;
16393;SDS011;8306;51.128;4.476;2024-02-21T00:20:48;12.27;;;5.63;;
16393;SDS011;8306;51.128;4.476;2024-02-21T00:23:15;11.17;;;5.87;;
16393;SDS011;8306;51.128;4.476;2024-02-21T00:25:41;10.97;;;5.67;;
16393;SDS011;8306;51.128;4.476;2024-02-21T00:28:08;7.50;;;5.93;;
16393;SDS011;8306;51.128;4.476;2024-02-21T00:30:34;9.33;;;5.93;;
16393;SDS011;8306;51.128;4.476;2024-02-21T00:33:01;7.83;;;5.23;;
16393;SDS011;8306;51.128;4.476;2024-02-21T00:35:27;14.30;;;5.93;;
16393;SDS011;8306;51.128;4.476;2024-02-21T00:37:54;13.27;;;6.37;;
16393;SDS011;8306;51.128;4.476;2024-02-21T00:40:20;7.07;;;5.53;;
16393;SDS011;8306;51.128;4.476;2024-02-21T00:42:47;10.90;;;6.47;;
16393;SDS011;8306;51.128;4.476;2024-02-21T00:45:13;11.17;;;5.67;;
16393;SDS011;8306;51.128;4.476;2024-02-21T00:47:40;12.57;;;6.13;;
16393;SDS011;8306;51.128;4.476;2024-02-21T00:50:06;10.23;;;6.00;;
16393;SDS011;8306;51.128;4.476;2024-02-21T00:52:33;9.70;;;5.80;;
16393;SDS011;8306;51.128;4.476;2024-02-21T00:54:59;10.97;;;5.70;;
16393;SDS011;8306;51.128;4.476;2024-02-21T00:57:26;8.60;;;5.77;;
16393;SDS011;8306;51.128;4.476;2024-02-21T00:59:52;8.60;;;5.67;;
16393;SDS011;8306;51.128;4.476;2024-02-21T01:02:19;8.63;;;6.73;;
16393;SDS011;8306;51.128;4.476;2024-02-21T01:04:45;11.10;;;6.60;;
16393;SDS011;8306;51.128;4.476;2024-02-21T01:07:12;11.53;;;6.80;;
16393;SDS011;8306;51.128;4.476;2024-02-21T01:09:38;11.60;;;7.03;;
16393;SDS011;8306;51.128;4.476;2024-02-21T01:12:05;8.37;;;6.37;;
16393;SDS011;8306;51.128;4.476;2024-02-21T01:14:31;11.83;;;6.87;;
16393;SDS011;8306;51.128;4.476;2024-02-21T01:16:58;11.40;;;6.40;;
16393;SDS011;8306;51.128;4.476;2024-02-21T01:19:24;11.70;;;7.07;;
16393;SDS011;8306;51.128;4.476;2024-02-21T01:21:51;10.57;;;7.33;;
16393;SDS011;8306;51.128;4.476;2024-02-21T01:24:17;9.67;;;6.73;;
16393;SDS011;8306;51.128;4.476;2024-02-21T01:26:43;13.50;;;7.43;;
16393;SDS011;8306;51.128;4.476;2024-02-21T01:29:10;9.47;;;6.30;;
16393;SDS011;8306;51.128;4.476;2024-02-21T01:31:36;8.77;;;6.33;;
16393;SDS011;8306;51.128;4.476;2024-02-21T01:34:03;12.70;;;7.50;;
16393;SDS011;8306;51.128;4.476;2024-02-21T01:36:29;7.93;;;6.10;;
16393;SDS011;8306;51.128;4.476;2024-02-21T01:38:56;7.43;;;6.23;;
16393;SDS011;8306;51.128;4.476;2024-02-21T01:41:22;9.03;;;7.13;;
16393;SDS011;8306;51.128;4.476;2024-02-21T01:43:49;7.87;;;6.10;;
16393;SDS011;8306;51.128;4.476;2024-02-21T01:46:15;9.10;;;6.80;;
16393;SDS011;8306;51.128;4.476;2024-02-21T01:48:42;8.80;;;6.70;;
16393;SDS011;8306;51.128;4.476;2024-02-21T01:51:08;11.97;;;7.30;;
16393;SDS011;8306;51.128;4.476;2024-02-21T01:53:35;10.43;;;7.23;;
16393;SDS011;8306;51.128;4.476;2024-02-21T01:56:01;10.47;;;7.17;;
16393;SDS011;8306;51.128;4.476;2024-02-21T01:58:28;12.33;;;7.03;;
16393;SDS011;8306;51.128;4.476;2024-02-21T02:00:54;11.00;;;7.60;;
16393;SDS011;8306;51.128;4.476;2024-02-21T02:03:21;14.80;;;7.57;;
16393;SDS011;8306;51.128;4.476;2024-02-21T02:05:47;11.87;;;7.87;;
16393;SDS011;8306;51.128;4.476;2024-02-21T02:08:14;11.80;;;8.47;;
16393;SDS011;8306;51.128;4.476;2024-02-21T02:10:40;14.03;;;7.83;;
16393;SDS011;8306;51.128;4.476;2024-02-21T02:13:07;10.90;;;7.37;;
16393;SDS011;8306;51.128;4.476;2024-02-21T02:15:42;14.13;;;7.73;;
16393;SDS011;8306;51.128;4.476;2024-02-21T02:18:09;13.07;;;8.17;;
16393;SDS011;8306;51.128;4.476;2024-02-21T02:20:35;12.53;;;8.17;;
16393;SDS011;8306;51.128;4.476;2024-02-21T02:23:08;12.37;;;8.10;;
16393;SDS011;8306;51.128;4.476;2024-02-21T02:25:34;14.60;;;8.70;;
16393;SDS011;8306;51.128;4.476;2024-02-21T02:28:00;12.53;;;8.57;;
16393;SDS011;8306;51.128;4.476;2024-02-21T02:30:26;13.43;;;8.30;;
16393;SDS011;8306;51.128;4.476;2024-02-21T02:32:53;10.47;;;8.03;;
16393;SDS011;8306;51.128;4.476;2024-02-21T02:35:19;12.30;;;7.87;;
16393;SDS011;8306;51.128;4.476;2024-02-21T02:37:49;13.47;;;7.97;;
16393;SDS011;8306;51.128;4.476;2024-02-21T02:40:15;12.30;;;8.33;;
16393;SDS011;8306;51.128;4.476;2024-02-21T02:42:42;9.87;;;8.03;;
16393;SDS011;8306;51.128;4.476;2024-02-21T02:45:08;14.47;;;8.37;;
16393;SDS011;8306;51.128;4.476;2024-02-21T02:47:35;14.07;;;8.37;;
16393;SDS011;8306;51.128;4.476;2024-02-21T02:50:01;13.50;;;8.53;;
16393;SDS011;8306;51.128;4.476;2024-02-21T02:52:28;10.73;;;7.87;;
16393;SDS011;8306;51.128;4.476;2024-02-21T02:54:54;16.47;;;8.77;;
16393;SDS011;8306;51.128;4.476;2024-02-21T02:57:21;15.83;;;8.60;;
16393;SDS011;8306;51.128;4.476;2024-02-21T02:59:50;13.07;;;8.37;;
16393;SDS011;8306;51.128;4.476;2024-02-21T03:02:14;12.53;;;8.57;;
16393;SDS011;8306;51.128;4.476;2024-02-21T03:04:40;13.43;;;8.67;;
16393;SDS011;8306;51.128;4.476;2024-02-21T03:07:07;14.47;;;9.00;;
16393;SDS011;8306;51.128;4.476;2024-02-21T03:09:33;10.40;;;7.90;;
16393;SDS011;8306;51.128;4.476;2024-02-21T03:11:59;13.77;;;8.53;;
16393;SDS011;8306;51.128;4.476;2024-02-21T03:14:26;11.90;;;7.83;;
16393;SDS011;8306;51.128;4.476;2024-02-21T03:16:52;15.40;;;8.60;;
16393;SDS011;8306;51.128;4.476;2024-02-21T03:19:19;10.83;;;8.23;;
16393;SDS011;8306;51.128;4.476;2024-02-21T03:21:45;13.20;;;8.23;;
16393;SDS011;8306;51.128;4.476;2024-02-21T03:24:12;14.53;;;7.97;;
16393;SDS011;8306;51.128;4.476;2024-02-21T03:26:38;9.60;;;7.90;;
16393;SDS011;8306;51.128;4.476;2024-02-21T03:29:05;11.03;;;7.57;;
16393;SDS011;8306;51.128;4.476;2024-02-21T03:31:31;11.90;;;7.47;;
16393;SDS011;8306;51.128;4.476;2024-02-21T03:33:58;9.97;;;7.57;;
16393;SDS011;8306;51.128;4.476;2024-02-21T03:36:24;10.80;;;7.83;;
16393;SDS011;8306;51.128;4.476;2024-02-21T03:38:51;9.80;;;7.33;;
16393;SDS011;8306;51.128;4.476;2024-02-21T03:41:17;10.53;;;7.70;;
16393;SDS011;8306;51.128;4.476;2024-02-21T03:43:44;9.03;;;7.37;;
16393;SDS011;8306;51.128;4.476;2024-02-21T03:46:10;11.17;;;6.90;;
16393;SDS011;8306;51.128;4.476;2024-02-21T03:48:37;10.30;;;7.53;;
16393;SDS011;8306;51.128;4.476;2024-02-21T03:51:03;9.33;;;7.40;;
16393;SDS011;8306;51.128;4.476;2024-02-21T03:53:30;8.10;;;7.03;;
16393;SDS011;8306;51.128;4.476;2024-02-21T03:55:56;10.20;;;6.77;;
16393;SDS011;8306;51.128;4.476;2024-02-21T03:58:23;9.57;;;6.97;;
16393;SDS011;8306;51.128;4.476;2024-02-21T04:00:49;11.50;;;7.87;;
16393;SDS011;8306;51.128;4.476;2024-02-21T04:03:16;12.23;;;7.40;;
16393;SDS011;8306;51.128;4.476;2024-02-21T04:05:42;10.80;;;8.37;;
16393;SDS011;8306;51.128;4.476;2024-02-21T04:08:08;13.77;;;8.40;;
16393;SDS011;8306;51.128;4.476;2024-02-21T04:10:35;12.13;;;7.80;;
16393;SDS011;8306;51.128;4.476;2024-02-21T04:13:01;9.73;;;8.70;;
16393;SDS011;8306;51.128;4.476;2024-02-21T04:15:28;11.40;;;8.37;;
16393;SDS011;8306;51.128;4.476;2024-02-21T04:17:54;9.53;;;7.87;;
16393;SDS011;8306;51.128;4.476;2024-02-21T04:20:21;14.40;;;8.40;;
16393;SDS011;8306;51.128;4.476;2024-02-21T04:22:47;11.43;;;8.87;;
16393;SDS011;8306;51.128;4.476;2024-02-21T04:25:14;11.43;;;8.37;;
16393;SDS011;8306;51.128;4.476;2024-02-21T04:27:40;12.67;;;8.60;;
16393;SDS011;8306;51.128;4.476;2024-02-21T04:30:07;10.40;;;8.17;;
16393;SDS011;8306;51.128;4.476;2024-02-21T04:32:33;14.47;;;9.73;;
16393;SDS011;8306;51.128;4.476;2024-02-21T04:35:00;12.37;;;9.00;;
16393;SDS011;8306;51.128;4.476;2024-02-21T04:37:26;11.93;;;8.83;;
16393;SDS011;8306;51.128;4.476;2024-02-21T04:39:53;13.30;;;8.93;;
16393;SDS011;8306;51.128;4.476;2024-02-21T04:42:19;14.83;;;9.20;;
16393;SDS011;8306;51.128;4.476;2024-02-21T04:44:46;12.90;;;9.33;;
16393;SDS011;8306;51.128;4.476;2024-02-21T04:47:12;10.40;;;9.13;;
16393;SDS011;8306;51.128;4.476;2024-02-21T04:49:39;16.07;;;9.30;;
16393;SDS011;8306;51.128;4.476;2024-02-21T04:52:05;13.43;;;9.70;;
16393;SDS011;8306;51.128;4.476;2024-02-21T04:54:32;16.10;;;9.70;;
16393;SDS011;8306;51.128;4.476;2024-02-21T04:56:58;12.73;;;9.10;;
16393;SDS011;8306;51.128;4.476;2024-02-21T04:59:25;11.30;;;8.90;;
16393;SDS011;8306;51.128;4.476;2024-02-21T05:01:51;16.13;;;9.77;;
16393;SDS011;8306;51.128;4.476;2024-02-21T05:04:17;12.20;;;9.20;;
16393;SDS011;8306;51.128;4.476;2024-02-21T05:06:44;12.47;;;10.07;;
16393;SDS011;8306;51.128;4.476;2024-02-21T05:09:10;13.63;;;9.97;;
16393;SDS011;8306;51.128;4.476;2024-02-21T05:11:37;14.07;;;10.00;;
16393;SDS011;8306;51.128;4.476;2024-02-21T05:14:04;11.90;;;9.53;;
16393;SDS011;8306;51.128;4.476;2024-02-21T05:16:30;18.53;;;10.00;;
16393;SDS011;8306;51.128;4.476;2024-02-21T05:18:56;15.60;;;10.23;;
16393;SDS011;8306;51.128;4.476;2024-02-21T05:21:23;20.33;;;9.80;;
16393;SDS011;8306;51.128;4.476;2024-02-21T05:23:50;16.07;;;9.83;;
16393;SDS011;8306;51.128;4.476;2024-02-21T05:26:22;13.57;;;10.07;;
16393;SDS011;8306;51.128;4.476;2024-02-21T05:28:51;12.37;;;10.17;;
16393;SDS011;8306;51.128;4.476;2024-02-21T05:31:18;12.70;;;10.07;;
16393;SDS011;8306;51.128;4.476;2024-02-21T05:33:44;18.77;;;9.60;;
16393;SDS011;8306;51.128;4.476;2024-02-21T05:36:11;13.37;;;9.97;;
16393;SDS011;8306;51.128;4.476;2024-02-21T05:38:37;12.10;;;9.70;;
16393;SDS011;8306;51.128;4.476;2024-02-21T05:41:03;12.20;;;8.90;;
16393;SDS011;8306;51.128;4.476;2024-02-21T05:43:30;10.97;;;9.40;;
16393;SDS011;8306;51.128;4.476;2024-02-21T05:45:56;11.73;;;9.13;;
16393;SDS011;8306;51.128;4.476;2024-02-21T05:48:23;12.50;;;9.03;;
16393;SDS011;8306;51.128;4.476;2024-02-21T05:50:49;12.83;;;9.63;;
16393;SDS011;8306;51.128;4.476;2024-02-21T05:53:16;14.43;;;9.40;;
16393;SDS011;8306;51.128;4.476;2024-02-21T05:55:42;11.40;;;9.00;;
16393;SDS011;8306;51.128;4.476;2024-02-21T05:58:09;15.40;;;9.37;;
16393;SDS011;8306;51.128;4.476;2024-02-21T06:00:38;11.50;;;9.23;;
16393;SDS011;8306;51.128;4.476;2024-02-21T06:03:04;11.30;;;9.30;;
16393;SDS011;8306;51.128;4.476;2024-02-21T06:05:31;10.33;;;8.20;;
16393;SDS011;8306;51.128;4.476;2024-02-21T06:07:57;11.33;;;8.67;;
16393;SDS011;8306;51.128;4.476;2024-02-21T06:10:24;12.13;;;8.10;;
16393;SDS011;8306;51.128;4.476;2024-02-21T06:12:50;10.40;;;8.20;;
16393;SDS011;8306;51.128;4.476;2024-02-21T06:15:17;14.67;;;8.90;;
16393;SDS011;8306;51.128;4.476;2024-02-21T06:17:43;11.10;;;8.80;;
16393;SDS011;8306;51.128;4.476;2024-02-21T06:20:10;13.00;;;8.57;;
16393;SDS011;8306;51.128;4.476;2024-02-21T06:22:36;9.60;;;7.33;;
16393;SDS011;8306;51.128;4.476;2024-02-21T06:25:03;9.73;;;8.00;;
16393;SDS011;8306;51.128;4.476;2024-02-21T06:27:29;9.20;;;7.93;;
16393;SDS011;8306;51.128;4.476;2024-02-21T06:29:55;9.43;;;8.53;;
16393;SDS011;8306;51.128;4.476;2024-02-21T06:32:22;9.40;;;7.33;;
16393;SDS011;8306;51.128;4.476;2024-02-21T06:34:48;9.70;;;8.10;;
16393;SDS011;8306;51.128;4.476;2024-02-21T06:37:15;8.13;;;7.30;;
16393;SDS011;8306;51.128;4.476;2024-02-21T06:39:41;8.27;;;7.40;;
16393;SDS011;8306;51.128;4.476;2024-02-21T06:42:08;8.30;;;7.40;;
16393;SDS011;8306;51.128;4.476;2024-02-21T06:44:34;9.00;;;7.20;;
16393;SDS011;8306;51.128;4.476;2024-02-21T06:47:01;9.17;;;7.30;;
16393;SDS011;8306;51.128;4.476;2024-02-21T06:49:27;8.73;;;7.90;;
16393;SDS011;8306;51.128;4.476;2024-02-21T06:51:54;9.73;;;7.57;;
16393;SDS011;8306;51.128;4.476;2024-02-21T06:54:20;8.30;;;7.40;;
16393;SDS011;8306;51.128;4.476;2024-02-21T06:56:47;9.93;;;7.40;;
16393;SDS011;8306;51.128;4.476;2024-02-21T06:59:13;8.10;;;7.27;;
16393;SDS011;8306;51.128;4.476;2024-02-21T07:01:40;7.23;;;6.47;;
16393;SDS011;8306;51.128;4.476;2024-02-21T07:04:06;8.33;;;6.80;;
16393;SDS011;8306;51.128;4.476;2024-02-21T07:06:33;9.40;;;7.43;;
16393;SDS011;8306;51.128;4.476;2024-02-21T07:08:59;7.83;;;7.10;;
16393;SDS011;8306;51.128;4.476;2024-02-21T07:11:26;9.70;;;7.63;;
16393;SDS011;8306;51.128;4.476;2024-02-21T07:13:52;8.70;;;7.33;;
16393;SDS011;8306;51.128;4.476;2024-02-21T07:16:18;8.70;;;6.77;;
16393;SDS011;8306;51.128;4.476;2024-02-21T07:18:45;8.73;;;6.83;;
16393;SDS011;8306;51.128;4.476;2024-02-21T07:21:12;7.33;;;6.63;;
16393;SDS011;8306;51.128;4.476;2024-02-21T07:23:41;7.30;;;6.30;;
16393;SDS011;8306;51.128;4.476;2024-02-21T07:26:08;6.90;;;6.23;;
16393;SDS011;8306;51.128;4.476;2024-02-21T07:28:34;6.73;;;6.13;;
16393;SDS011;8306;51.128;4.476;2024-02-21T07:31:01;7.00;;;6.37;;
16393;SDS011;8306;51.128;4.476;2024-02-21T07:33:27;8.40;;;7.03;;
16393;SDS011;8306;51.128;4.476;2024-02-21T07:35:54;7.43;;;6.80;;
16393;SDS011;8306;51.128;4.476;2024-02-21T07:38:20;7.17;;;6.60;;
16393;SDS011;8306;51.128;4.476;2024-02-21T07:40:47;7.27;;;6.57;;
16393;SDS011;8306;51.128;4.476;2024-02-21T07:43:13;7.60;;;6.90;;
16393;SDS011;8306;51.128;4.476;2024-02-21T07:45:40;7.93;;;7.23;;
16393;SDS011;8306;51.128;4.476;2024-02-21T07:48:06;7.83;;;7.20;;
16393;SDS011;8306;51.128;4.476;2024-02-21T07:50:33;8.20;;;7.50;;
16393;SDS011;8306;51.128;4.476;2024-02-21T07:52:59;8.53;;;7.73;;
16393;SDS011;8306;51.128;4.476;2024-02-21T07:55:26;8.50;;;7.87;;
16393;SDS011;8306;51.128;4.476;2024-02-21T07:57:52;8.33;;;7.60;;
16393;SDS011;8306;51.128;4.476;2024-02-21T08:00:19;8.60;;;8.00;;
16393;SDS011;8306;51.128;4.476;2024-02-21T08:02:45;8.50;;;7.83;;
16393;SDS011;8306;51.128;4.476;2024-02-21T08:05:12;8.83;;;8.13;;
16393;SDS011;8306;51.128;4.476;2024-02-21T08:07:38;8.60;;;7.90;;
16393;SDS011;8306;51.128;4.476;2024-02-21T08:10:05;9.07;;;8.37;;
16393;SDS011;8306;51.128;4.476;2024-02-21T08:12:31;8.83;;;8.13;;
16393;SDS011;8306;51.128;4.476;2024-02-21T08:14:58;11.07;;;10.23;;
16393;SDS011;8306;51.128;4.476;2024-02-21T08:17:24;11.97;;;11.07;;
16393;SDS011;8306;51.128;4.476;2024-02-21T08:19:51;12.43;;;11.43;;
16393;SDS011;8306;51.128;4.476;2024-02-21T08:22:17;13.37;;;12.27;;
16393;SDS011;8306;51.128;4.476;2024-02-21T08:24:44;13.37;;;12.27;;
16393;SDS011;8306;51.128;4.476;2024-02-21T08:27:10;12.47;;;11.47;;
16393;SDS011;8306;51.128;4.476;2024-02-21T08:29:36;14.03;;;12.83;;
16393;SDS011;8306;51.128;4.476;2024-02-21T08:32:03;12.40;;;11.30;;
16393;SDS011;8306;51.128;4.476;2024-02-21T08:34:29;12.10;;;11.20;;
16393;SDS011;8306;51.128;4.476;2024-02-21T08:36:56;13.20;;;12.07;;
16393;SDS011;8306;51.128;4.476;2024-02-21T08:39:22;11.13;;;10.13;;
16393;SDS011;8306;51.128;4.476;2024-02-21T08:41:49;12.57;;;11.67;;
16393;SDS011;8306;51.128;4.476;2024-02-21T08:44:15;10.43;;;9.63;;
16393;SDS011;8306;51.128;4.476;2024-02-21T08:46:42;10.03;;;9.20;;
16393;SDS011;8306;51.128;4.476;2024-02-21T08:49:09;10.00;;;9.00;;
16393;SDS011;8306;51.128;4.476;2024-02-21T08:51:35;8.33;;;7.63;;
16393;SDS011;8306;51.128;4.476;2024-02-21T08:54:01;7.83;;;7.23;;
16393;SDS011;8306;51.128;4.476;2024-02-21T08:56:29;8.70;;;7.90;;
16393;SDS011;8306;51.128;4.476;2024-02-21T08:58:54;8.37;;;7.57;;
16393;SDS011;8306;51.128;4.476;2024-02-21T09:01:21;6.63;;;6.13;;
16393;SDS011;8306;51.128;4.476;2024-02-21T09:03:47;7.07;;;6.37;;
16393;SDS011;8306;51.128;4.476;2024-02-21T09:06:14;7.03;;;6.40;;
16393;SDS011;8306;51.128;4.476;2024-02-21T09:08:40;7.73;;;6.93;;
16393;SDS011;8306;51.128;4.476;2024-02-21T09:11:07;7.63;;;6.73;;
16393;SDS011;8306;51.128;4.476;2024-02-21T09:13:33;8.20;;;7.40;;
16393;SDS011;8306;51.128;4.476;2024-02-21T09:16:00;6.23;;;5.63;;
16393;SDS011;8306;51.128;4.476;2024-02-21T09:18:26;7.40;;;5.57;;
16393;SDS011;8306;51.128;4.476;2024-02-21T09:20:53;6.47;;;5.30;;
16393;SDS011;8306;51.128;4.476;2024-02-21T09:23:19;6.23;;;5.60;;
16393;SDS011;8306;51.128;4.476;2024-02-21T09:25:46;6.23;;;4.60;;
16393;SDS011;8306;51.128;4.476;2024-02-21T09:28:12;5.43;;;4.30;;
16393;SDS011;8306;51.128;4.476;2024-02-21T09:30:38;6.43;;;5.83;;
16393;SDS011;8306;51.128;4.476;2024-02-21T09:33:05;6.40;;;5.70;;
16393;SDS011;8306;51.128;4.476;2024-02-21T09:35:31;6.10;;;5.60;;
16393;SDS011;8306;51.128;4.476;2024-02-21T09:37:58;6.03;;;5.53;;
16393;SDS011;8306;51.128;4.476;2024-02-21T09:40:24;6.70;;;5.80;;
16393;SDS011;8306;51.128;4.476;2024-02-21T09:42:51;6.50;;;5.47;;
16393;SDS011;8306;51.128;4.476;2024-02-21T09:45:21;4.67;;;4.27;;
16393;SDS011;8306;51.128;4.476;2024-02-21T09:50:32;8.07;;;4.77;;
16393;SDS011;8306;51.128;4.476;2024-02-21T09:52:58;7.93;;;6.10;;
16393;SDS011;8306;51.128;4.476;2024-02-21T09:55:24;5.60;;;4.73;;
16393;SDS011;8306;51.128;4.476;2024-02-21T09:57:51;5.00;;;4.50;;
16393;SDS011;8306;51.128;4.476;2024-02-21T10:00:17;4.03;;;3.50;;
16393;SDS011;8306;51.128;4.476;2024-02-21T10:02:44;3.50;;;3.17;;
16393;SDS011;8306;51.128;4.476;2024-02-21T10:05:10;4.03;;;3.00;;
16393;SDS011;8306;51.128;4.476;2024-02-21T10:07:37;3.50;;;2.93;;
16393;SDS011;8306;51.128;4.476;2024-02-21T10:10:03;3.57;;;3.27;;
16393;SDS011;8306;51.128;4.476;2024-02-21T10:12:30;4.43;;;3.30;;
16393;SDS011;8306;51.128;4.476;2024-02-21T10:15:00;4.83;;;3.40;;
16393;SDS011;8306;51.128;4.476;2024-02-21T10:17:28;6.87;;;4.53;;
16393;SDS011;8306;51.128;4.476;2024-02-21T10:19:55;5.77;;;3.73;;
16393;SDS011;8306;51.128;4.476;2024-02-21T10:22:21;4.10;;;3.60;;
16393;SDS011;8306;51.128;4.476;2024-02-21T10:24:48;4.73;;;3.10;;
16393;SDS011;8306;51.128;4.476;2024-02-21T10:27:14;4.47;;;3.50;;
16393;SDS011;8306;51.128;4.476;2024-02-21T10:29:41;3.73;;;3.20;;
16393;SDS011;8306;51.128;4.476;2024-02-21T10:32:08;3.37;;;2.67;;
16393;SDS011;8306;51.128;4.476;2024-02-21T10:34:34;3.03;;;2.73;;
16393;SDS011;8306;51.128;4.476;2024-02-21T10:37:06;6.07;;;2.80;;
16393;SDS011;8306;51.128;4.476;2024-02-21T10:39:33;3.87;;;2.70;;
16393;SDS011;8306;51.128;4.476;2024-02-21T10:42:00;3.60;;;2.60;;
16393;SDS011;8306;51.128;4.476;2024-02-21T10:44:27;3.80;;;2.90;;
16393;SDS011;8306;51.128;4.476;2024-02-21T10:46:52;5.40;;;2.97;;
16393;SDS011;8306;51.128;4.476;2024-02-21T10:49:22;4.57;;;3.07;;
16393;SDS011;8306;51.128;4.476;2024-02-21T10:51:48;5.13;;;2.77;;
16393;SDS011;8306;51.128;4.476;2024-02-21T10:56:59;4.67;;;3.10;;
16393;SDS011;8306;51.128;4.476;2024-02-21T10:59:26;4.83;;;3.00;;
16393;SDS011;8306;51.128;4.476;2024-02-21T11:01:52;4.73;;;3.37;;
16393;SDS011;8306;51.128;4.476;2024-02-21T11:04:19;4.60;;;3.23;;
16393;SDS011;8306;51.128;4.476;2024-02-21T11:06:45;5.93;;;3.87;;
16393;SDS011;8306;51.128;4.476;2024-02-21T11:09:11;4.83;;;3.50;;
16393;SDS011;8306;51.128;4.476;2024-02-21T11:11:39;5.67;;;4.40;;
16393;SDS011;8306;51.128;4.476;2024-02-21T11:14:11;5.07;;;4.40;;
16393;SDS011;8306;51.128;4.476;2024-02-21T11:16:41;6.07;;;4.30;;
16393;SDS011;8306;51.128;4.476;2024-02-21T11:19:04;5.60;;;3.87;;
16393;SDS011;8306;51.128;4.476;2024-02-21T11:21:33;5.73;;;3.83;;
16393;SDS011;8306;51.128;4.476;2024-02-21T11:23:59;6.20;;;3.60;;
16393;SDS011;8306;51.128;4.476;2024-02-21T11:26:27;6.40;;;3.40;;
16393;SDS011;8306;51.128;4.476;2024-02-21T11:28:58;4.90;;;3.07;;
16393;SDS011;8306;51.128;4.476;2024-02-21T11:31:24;5.10;;;3.30;;
16393;SDS011;8306;51.128;4.476;2024-02-21T11:33:50;5.33;;;3.17;;
16393;SDS011;8306;51.128;4.476;2024-02-21T11:36:26;4.53;;;3.20;;
16393;SDS011;8306;51.128;4.476;2024-02-21T11:38:52;7.70;;;2.53;;
16393;SDS011;8306;51.128;4.476;2024-02-21T11:41:19;4.67;;;3.33;;
16393;SDS011;8306;51.128;4.476;2024-02-21T11:43:45;4.87;;;3.17;;
16393;SDS011;8306;51.128;4.476;2024-02-21T11:46:13;4.97;;;3.10;;
16393;SDS011;8306;51.128;4.476;2024-02-21T11:48:38;4.83;;;3.67;;
16393;SDS011;8306;51.128;4.476;2024-02-21T11:51:05;5.00;;;3.60;;
16393;SDS011;8306;51.128;4.476;2024-02-21T11:53:31;5.97;;;4.30;;
16393;SDS011;8306;51.128;4.476;2024-02-21T11:55:58;5.13;;;4.63;;
16393;SDS011;8306;51.128;4.476;2024-02-21T11:58:24;6.40;;;4.90;;
16393;SDS011;8306;51.128;4.476;2024-02-21T12:00:51;6.33;;;4.70;;
16393;SDS011;8306;51.128;4.476;2024-02-21T12:03:17;4.60;;;4.20;;
16393;SDS011;8306;51.128;4.476;2024-02-21T12:05:44;6.40;;;4.50;;
16393;SDS011;8306;51.128;4.476;2024-02-21T12:08:10;5.47;;;4.10;;
16393;SDS011;8306;51.128;4.476;2024-02-21T12:10:37;5.00;;;3.50;;
16393;SDS011;8306;51.128;4.476;2024-02-21T12:13:09;4.90;;;3.70;;
16393;SDS011;8306;51.128;4.476;2024-02-21T12:15:35;4.80;;;3.50;;
16393;SDS011;8306;51.128;4.476;2024-02-21T12:18:02;4.73;;;3.30;;
16393;SDS011;8306;51.128;4.476;2024-02-21T12:20:28;3.77;;;3.33;;
16393;SDS011;8306;51.128;4.476;2024-02-21T12:22:55;5.33;;;3.20;;
16393;SDS011;8306;51.128;4.476;2024-02-21T12:25:22;4.20;;;3.23;;
16393;SDS011;8306;51.128;4.476;2024-02-21T12:27:50;5.80;;;3.40;;
16393;SDS011;8306;51.128;4.476;2024-02-21T12:30:17;5.57;;;3.27;;
16393;SDS011;8306;51.128;4.476;2024-02-21T12:32:43;5.20;;;3.77;;
16393;SDS011;8306;51.128;4.476;2024-02-21T12:35:10;5.73;;;4.03;;
16393;SDS011;8306;51.128;4.476;2024-02-21T12:37:36;6.07;;;3.67;;
16393;SDS011;8306;51.128;4.476;2024-02-21T12:40:04;5.33;;;3.83;;
16393;SDS011;8306;51.128;4.476;2024-02-21T12:42:29;4.83;;;3.93;;
16393;SDS011;8306;51.128;4.476;2024-02-21T12:44:56;7.43;;;3.97;;
16393;SDS011;8306;51.128;4.476;2024-02-21T12:47:22;6.50;;;3.80;;
16393;SDS011;8306;51.128;4.476;2024-02-21T12:49:49;5.07;;;3.73;;
16393;SDS011;8306;51.128;4.476;2024-02-21T12:52:15;5.83;;;4.30;;
16393;SDS011;8306;51.128;4.476;2024-02-21T12:54:42;7.50;;;4.73;;
16393;SDS011;8306;51.128;4.476;2024-02-21T12:57:08;5.30;;;4.33;;
16393;SDS011;8306;51.128;4.476;2024-02-21T12:59:35;6.50;;;4.67;;
16393;SDS011;8306;51.128;4.476;2024-02-21T13:02:01;5.73;;;4.20;;
16393;SDS011;8306;51.128;4.476;2024-02-21T13:04:28;4.97;;;4.00;;
16393;SDS011;8306;51.128;4.476;2024-02-21T13:06:54;5.97;;;4.07;;
16393;SDS011;8306;51.128;4.476;2024-02-21T13:09:24;6.37;;;4.30;;
16393;SDS011;8306;51.128;4.476;2024-02-21T13:11:50;6.80;;;4.30;;
16393;SDS011;8306;51.128;4.476;2024-02-21T13:14:17;6.13;;;4.27;;
16393;SDS011;8306;51.128;4.476;2024-02-21T13:16:43;4.60;;;4.20;;
16393;SDS011;8306;51.128;4.476;2024-02-21T13:19:10;5.73;;;3.60;;
16393;SDS011;8306;51.128;4.476;2024-02-21T13:21:36;7.13;;;4.27;;
16393;SDS011;8306;51.128;4.476;2024-02-21T13:24:03;6.50;;;4.63;;
16393;SDS011;8306;51.128;4.476;2024-02-21T13:26:29;7.33;;;5.97;;
16393;SDS011;8306;51.128;4.476;2024-02-21T13:28:55;12.10;;;8.57;;
16393;SDS011;8306;51.128;4.476;2024-02-21T13:31:22;6.37;;;5.73;;
16393;SDS011;8306;51.128;4.476;2024-02-21T13:33:48;7.03;;;4.83;;
16393;SDS011;8306;51.128;4.476;2024-02-21T13:36:15;8.47;;;7.67;;
16393;SDS011;8306;51.128;4.476;2024-02-21T13:38:41;8.33;;;7.57;;
16393;SDS011;8306;51.128;4.476;2024-02-21T13:41:08;4.53;;;4.00;;
16393;SDS011;8306;51.128;4.476;2024-02-21T13:43:34;6.43;;;4.57;;
16393;SDS011;8306;51.128;4.476;2024-02-21T13:46:01;5.47;;;4.10;;
16393;SDS011;8306;51.128;4.476;2024-02-21T13:48:30;5.23;;;4.03;;
16393;SDS011;8306;51.128;4.476;2024-02-21T13:50:57;4.67;;;4.27;;
16393;SDS011;8306;51.128;4.476;2024-02-21T13:53:23;7.40;;;5.87;;
16393;SDS011;8306;51.128;4.476;2024-02-21T13:55:49;7.10;;;5.07;;
16393;SDS011;8306;51.128;4.476;2024-02-21T13:58:16;6.73;;;5.40;;
16393;SDS011;8306;51.128;4.476;2024-02-21T14:00:42;4.90;;;4.17;;
16393;SDS011;8306;51.128;4.476;2024-02-21T14:03:09;6.10;;;4.37;;
16393;SDS011;8306;51.128;4.476;2024-02-21T14:05:35;5.10;;;4.13;;
16393;SDS011;8306;51.128;4.476;2024-02-21T14:08:02;5.57;;;4.10;;
16393;SDS011;8306;51.128;4.476;2024-02-21T14:10:28;4.90;;;4.10;;
16393;SDS011;8306;51.128;4.476;2024-02-21T14:12:55;7.90;;;4.20;;
16393;SDS011;8306;51.128;4.476;2024-02-21T14:15:21;5.97;;;4.40;;
16393;SDS011;8306;51.128;4.476;2024-02-21T14:17:48;5.70;;;4.80;;
16393;SDS011;8306;51.128;4.476;2024-02-21T14:20:14;9.63;;;6.97;;
16393;SDS011;8306;51.128;4.476;2024-02-21T14:22:41;7.67;;;6.67;;
16393;SDS011;8306;51.128;4.476;2024-02-21T14:25:08;7.37;;;6.73;;
16393;SDS011;8306;51.128;4.476;2024-02-21T14:27:34;10.10;;;8.53;;
16393;SDS011;8306;51.128;4.476;2024-02-21T14:30:04;6.93;;;6.07;;
16393;SDS011;8306;51.128;4.476;2024-02-21T14:32:30;7.43;;;6.73;;
16393;SDS011;8306;51.128;4.476;2024-02-21T14:34:57;7.17;;;6.13;;
16393;SDS011;8306;51.128;4.476;2024-02-21T14:37:23;9.40;;;8.53;;
16393;SDS011;8306;51.128;4.476;2024-02-21T14:39:50;7.23;;;6.47;;
16393;SDS011;8306;51.128;4.476;2024-02-21T14:42:16;6.57;;;5.90;;
16393;SDS011;8306;51.128;4.476;2024-02-21T14:44:43;7.00;;;6.30;;
16393;SDS011;8306;51.128;4.476;2024-02-21T14:47:09;6.87;;;5.97;;
16393;SDS011;8306;51.128;4.476;2024-02-21T14:49:36;7.57;;;5.90;;
16393;SDS011;8306;51.128;4.476;2024-02-21T14:52:02;6.20;;;5.40;;
16393;SDS011;8306;51.128;4.476;2024-02-21T14:54:29;5.77;;;5.27;;
16393;SDS011;8306;51.128;4.476;2024-02-21T14:56:55;7.80;;;6.20;;